sensor_id;sensor_type;location;lat;lon;timestamp;P1;durP1;ratioP1;P2;durP2;ratioP2
54919;SDS011;63804;53.120;8.764;2024-03-22T00:01:56;21.10;;;12.55;;
54919;SDS011;63804;53.120;8.764;2024-03-22T00:04:22;21.42;;;12.90;;
54919;SDS011;63804;53.120;8.764;2024-03-22T00:06:49;24.42;;;13.57;;
54919;SDS011;63804;53.120;8.764;2024-03-22T00:09:16;23.85;;;13.68;;
54919;SDS011;63804;53.120;8.764;2024-03-22T00:11:42;23.27;;;13.82;;
54919;SDS011;63804;53.120;8.764;2024-03-22T00:14:09;22.45;;;14.15;;
54919;SDS011;63804;53.120;8.764;2024-03-22T00:16:37;23.08;;;13.70;;
54919;SDS011;63804;53.120;8.764;2024-03-22T00:19:03;24.48;;;14.88;;
54919;SDS011;63804;53.120;8.764;2024-03-22T00:21:30;25.95;;;15.40;;
54919;SDS011;63804;53.120;8.764;2024-03-22T00:23:59;24.02;;;15.02;;
54919;SDS011;63804;53.120;8.764;2024-03-22T00:26:26;25.38;;;15.55;;
54919;SDS011;63804;53.120;8.764;2024-03-22T00:28:53;24.38;;;16.23;;
54919;SDS011;63804;53.120;8.764;2024-03-22T00:31:19;29.55;;;16.08;;
54919;SDS011;63804;53.120;8.764;2024-03-22T00:33:46;26.60;;;16.27;;
54919;SDS011;63804;53.120;8.764;2024-03-22T00:36:12;27.67;;;17.13;;
54919;SDS011;63804;53.120;8.764;2024-03-22T00:38:38;26.98;;;16.48;;
54919;SDS011;63804;53.120;8.764;2024-03-22T00:41:05;28.30;;;16.92;;
54919;SDS011;63804;53.120;8.764;2024-03-22T00:43:32;26.00;;;16.27;;
54919;SDS011;63804;53.120;8.764;2024-03-22T00:45:58;25.77;;;17.13;;
54919;SDS011;63804;53.120;8.764;2024-03-22T00:48:24;29.13;;;17.98;;
54919;SDS011;63804;53.120;8.764;2024-03-22T00:50:50;30.98;;;17.80;;
54919;SDS011;63804;53.120;8.764;2024-03-22T00:53:16;27.77;;;17.50;;
54919;SDS011;63804;53.120;8.764;2024-03-22T00:55:42;29.58;;;17.77;;
54919;SDS011;63804;53.120;8.764;2024-03-22T00:58:08;31.30;;;18.80;;
54919;SDS011;63804;53.120;8.764;2024-03-22T01:00:34;26.98;;;17.27;;
54919;SDS011;63804;53.120;8.764;2024-03-22T01:03:02;28.30;;;18.08;;
54919;SDS011;63804;53.120;8.764;2024-03-22T01:05:28;32.80;;;19.52;;
54919;SDS011;63804;53.120;8.764;2024-03-22T01:07:54;30.30;;;19.27;;
54919;SDS011;63804;53.120;8.764;2024-03-22T01:10:20;30.50;;;19.67;;
54919;SDS011;63804;53.120;8.764;2024-03-22T01:12:46;32.20;;;19.67;;
54919;SDS011;63804;53.120;8.764;2024-03-22T01:15:12;35.13;;;20.98;;
54919;SDS011;63804;53.120;8.764;2024-03-22T01:17:38;32.53;;;21.58;;
54919;SDS011;63804;53.120;8.764;2024-03-22T01:20:04;35.17;;;20.85;;
54919;SDS011;63804;53.120;8.764;2024-03-22T01:22:30;36.47;;;21.15;;
54919;SDS011;63804;53.120;8.764;2024-03-22T01:24:56;33.63;;;21.08;;
54919;SDS011;63804;53.120;8.764;2024-03-22T01:27:22;34.40;;;21.40;;
54919;SDS011;63804;53.120;8.764;2024-03-22T01:29:48;33.50;;;21.33;;
54919;SDS011;63804;53.120;8.764;2024-03-22T01:32:15;34.95;;;21.98;;
54919;SDS011;63804;53.120;8.764;2024-03-22T01:34:41;35.25;;;21.98;;
54919;SDS011;63804;53.120;8.764;2024-03-22T01:37:07;36.63;;;23.08;;
54919;SDS011;63804;53.120;8.764;2024-03-22T01:39:33;38.33;;;24.10;;
54919;SDS011;63804;53.120;8.764;2024-03-22T01:41:59;38.75;;;23.70;;
54919;SDS011;63804;53.120;8.764;2024-03-22T01:44:29;38.15;;;23.60;;
54919;SDS011;63804;53.120;8.764;2024-03-22T01:46:57;35.42;;;23.63;;
54919;SDS011;63804;53.120;8.764;2024-03-22T01:49:23;37.25;;;23.98;;
54919;SDS011;63804;53.120;8.764;2024-03-22T01:51:51;38.63;;;23.90;;
54919;SDS011;63804;53.120;8.764;2024-03-22T01:54:17;37.50;;;23.48;;
54919;SDS011;63804;53.120;8.764;2024-03-22T01:56:45;40.25;;;24.63;;
54919;SDS011;63804;53.120;8.764;2024-03-22T01:59:12;40.75;;;25.25;;
54919;SDS011;63804;53.120;8.764;2024-03-22T02:01:38;38.15;;;24.73;;
54919;SDS011;63804;53.120;8.764;2024-03-22T02:04:05;40.60;;;24.90;;
54919;SDS011;63804;53.120;8.764;2024-03-22T02:06:32;40.28;;;24.77;;
54919;SDS011;63804;53.120;8.764;2024-03-22T02:08:59;42.35;;;25.45;;
54919;SDS011;63804;53.120;8.764;2024-03-22T02:11:25;44.53;;;27.95;;
54919;SDS011;63804;53.120;8.764;2024-03-22T02:13:52;42.08;;;26.95;;
54919;SDS011;63804;53.120;8.764;2024-03-22T02:16:18;47.22;;;26.67;;
54919;SDS011;63804;53.120;8.764;2024-03-22T02:18:45;43.17;;;26.08;;
54919;SDS011;63804;53.120;8.764;2024-03-22T02:21:11;42.05;;;26.67;;
54919;SDS011;63804;53.120;8.764;2024-03-22T02:23:37;43.95;;;26.55;;
54919;SDS011;63804;53.120;8.764;2024-03-22T02:26:05;45.47;;;27.40;;
54919;SDS011;63804;53.120;8.764;2024-03-22T02:28:33;40.78;;;26.02;;
54919;SDS011;63804;53.120;8.764;2024-03-22T02:31:01;43.13;;;27.23;;
54919;SDS011;63804;53.120;8.764;2024-03-22T02:33:28;44.63;;;27.83;;
54919;SDS011;63804;53.120;8.764;2024-03-22T02:35:55;39.03;;;25.20;;
54919;SDS011;63804;53.120;8.764;2024-03-22T02:38:21;41.78;;;26.27;;
54919;SDS011;63804;53.120;8.764;2024-03-22T02:40:48;43.47;;;27.08;;
54919;SDS011;63804;53.120;8.764;2024-03-22T02:43:15;47.15;;;27.85;;
54919;SDS011;63804;53.120;8.764;2024-03-22T02:45:41;46.45;;;27.38;;
54919;SDS011;63804;53.120;8.764;2024-03-22T02:48:07;43.03;;;27.02;;
54919;SDS011;63804;53.120;8.764;2024-03-22T02:50:33;46.08;;;27.70;;
54919;SDS011;63804;53.120;8.764;2024-03-22T02:53:00;42.97;;;26.42;;
54919;SDS011;63804;53.120;8.764;2024-03-22T02:55:30;43.88;;;26.55;;
54919;SDS011;63804;53.120;8.764;2024-03-22T02:58:01;45.20;;;26.70;;
54919;SDS011;63804;53.120;8.764;2024-03-22T03:00:28;45.58;;;26.75;;
54919;SDS011;63804;53.120;8.764;2024-03-22T03:02:54;44.53;;;27.58;;
54919;SDS011;63804;53.120;8.764;2024-03-22T03:05:20;46.30;;;28.63;;
54919;SDS011;63804;53.120;8.764;2024-03-22T03:07:49;44.90;;;26.65;;
54919;SDS011;63804;53.120;8.764;2024-03-22T03:10:16;47.03;;;29.17;;
54919;SDS011;63804;53.120;8.764;2024-03-22T03:12:42;46.17;;;28.20;;
54919;SDS011;63804;53.120;8.764;2024-03-22T03:15:08;45.65;;;27.17;;
54919;SDS011;63804;53.120;8.764;2024-03-22T03:17:34;46.42;;;29.38;;
54919;SDS011;63804;53.120;8.764;2024-03-22T03:20:00;45.55;;;28.17;;
54919;SDS011;63804;53.120;8.764;2024-03-22T03:22:26;47.65;;;28.83;;
54919;SDS011;63804;53.120;8.764;2024-03-22T03:24:52;49.03;;;28.77;;
54919;SDS011;63804;53.120;8.764;2024-03-22T03:27:19;50.42;;;28.92;;
54919;SDS011;63804;53.120;8.764;2024-03-22T03:29:45;43.20;;;27.45;;
54919;SDS011;63804;53.120;8.764;2024-03-22T03:32:11;47.78;;;28.42;;
54919;SDS011;63804;53.120;8.764;2024-03-22T03:34:38;48.63;;;29.13;;
54919;SDS011;63804;53.120;8.764;2024-03-22T03:37:04;48.50;;;28.58;;
54919;SDS011;63804;53.120;8.764;2024-03-22T03:39:30;50.60;;;28.25;;
54919;SDS011;63804;53.120;8.764;2024-03-22T03:41:56;49.30;;;29.15;;
54919;SDS011;63804;53.120;8.764;2024-03-22T03:44:22;52.20;;;29.65;;
54919;SDS011;63804;53.120;8.764;2024-03-22T03:46:50;52.00;;;29.25;;
54919;SDS011;63804;53.120;8.764;2024-03-22T03:49:17;48.30;;;28.77;;
54919;SDS011;63804;53.120;8.764;2024-03-22T03:51:43;49.78;;;28.50;;
54919;SDS011;63804;53.120;8.764;2024-03-22T03:54:09;51.35;;;29.70;;
54919;SDS011;63804;53.120;8.764;2024-03-22T03:56:35;51.00;;;29.13;;
54919;SDS011;63804;53.120;8.764;2024-03-22T03:59:00;50.15;;;29.00;;
54919;SDS011;63804;53.120;8.764;2024-03-22T04:01:27;51.38;;;29.50;;
54919;SDS011;63804;53.120;8.764;2024-03-22T04:03:53;49.58;;;29.63;;
54919;SDS011;63804;53.120;8.764;2024-03-22T04:06:19;48.88;;;29.45;;
54919;SDS011;63804;53.120;8.764;2024-03-22T04:08:45;54.08;;;30.35;;
54919;SDS011;63804;53.120;8.764;2024-03-22T04:11:11;50.95;;;29.73;;
54919;SDS011;63804;53.120;8.764;2024-03-22T04:13:37;53.92;;;29.80;;
54919;SDS011;63804;53.120;8.764;2024-03-22T04:16:03;51.33;;;29.63;;
54919;SDS011;63804;53.120;8.764;2024-03-22T04:18:30;55.40;;;30.38;;
54919;SDS011;63804;53.120;8.764;2024-03-22T04:20:57;51.58;;;29.42;;
54919;SDS011;63804;53.120;8.764;2024-03-22T04:23:23;48.92;;;28.95;;
54919;SDS011;63804;53.120;8.764;2024-03-22T04:25:59;50.33;;;29.15;;
54919;SDS011;63804;53.120;8.764;2024-03-22T04:28:26;49.88;;;29.40;;
54919;SDS011;63804;53.120;8.764;2024-03-22T04:30:57;54.97;;;29.95;;
54919;SDS011;63804;53.120;8.764;2024-03-22T04:33:28;49.28;;;28.38;;
54919;SDS011;63804;53.120;8.764;2024-03-22T04:35:55;46.55;;;28.42;;
54919;SDS011;63804;53.120;8.764;2024-03-22T04:38:22;51.22;;;29.08;;
54919;SDS011;63804;53.120;8.764;2024-03-22T04:40:49;52.17;;;29.45;;
54919;SDS011;63804;53.120;8.764;2024-03-22T04:43:15;50.50;;;29.90;;
54919;SDS011;63804;53.120;8.764;2024-03-22T04:45:45;52.40;;;29.70;;
54919;SDS011;63804;53.120;8.764;2024-03-22T04:48:13;47.92;;;29.00;;
54919;SDS011;63804;53.120;8.764;2024-03-22T04:50:40;51.65;;;28.92;;
54919;SDS011;63804;53.120;8.764;2024-03-22T04:53:06;47.33;;;28.30;;
54919;SDS011;63804;53.120;8.764;2024-03-22T04:55:32;52.08;;;29.88;;
54919;SDS011;63804;53.120;8.764;2024-03-22T04:57:59;50.67;;;29.55;;
54919;SDS011;63804;53.120;8.764;2024-03-22T05:00:25;49.40;;;29.75;;
54919;SDS011;63804;53.120;8.764;2024-03-22T05:02:51;53.47;;;30.05;;
54919;SDS011;63804;53.120;8.764;2024-03-22T05:05:18;50.53;;;29.30;;
54919;SDS011;63804;53.120;8.764;2024-03-22T05:07:44;50.40;;;29.95;;
54919;SDS011;63804;53.120;8.764;2024-03-22T05:10:10;52.17;;;31.02;;
54919;SDS011;63804;53.120;8.764;2024-03-22T05:12:37;49.22;;;29.90;;
54919;SDS011;63804;53.120;8.764;2024-03-22T05:15:03;51.25;;;30.30;;
54919;SDS011;63804;53.120;8.764;2024-03-22T05:17:30;51.50;;;30.23;;
54919;SDS011;63804;53.120;8.764;2024-03-22T05:19:58;48.58;;;28.80;;
54919;SDS011;63804;53.120;8.764;2024-03-22T05:22:24;52.65;;;30.15;;
54919;SDS011;63804;53.120;8.764;2024-03-22T05:24:50;51.97;;;30.23;;
54919;SDS011;63804;53.120;8.764;2024-03-22T05:27:20;50.35;;;30.08;;
54919;SDS011;63804;53.120;8.764;2024-03-22T05:29:46;48.22;;;29.23;;
54919;SDS011;63804;53.120;8.764;2024-03-22T05:32:12;52.10;;;29.60;;
54919;SDS011;63804;53.120;8.764;2024-03-22T05:34:38;51.88;;;30.00;;
54919;SDS011;63804;53.120;8.764;2024-03-22T05:37:04;52.63;;;30.00;;
54919;SDS011;63804;53.120;8.764;2024-03-22T05:39:30;57.58;;;30.70;;
54919;SDS011;63804;53.120;8.764;2024-03-22T05:41:56;53.92;;;30.25;;
54919;SDS011;63804;53.120;8.764;2024-03-22T05:44:22;53.90;;;29.65;;
54919;SDS011;63804;53.120;8.764;2024-03-22T05:46:48;53.53;;;29.60;;
54919;SDS011;63804;53.120;8.764;2024-03-22T05:49:15;51.60;;;29.70;;
54919;SDS011;63804;53.120;8.764;2024-03-22T05:51:41;54.00;;;30.23;;
54919;SDS011;63804;53.120;8.764;2024-03-22T05:54:08;53.08;;;31.17;;
54919;SDS011;63804;53.120;8.764;2024-03-22T05:56:34;53.80;;;30.13;;
54919;SDS011;63804;53.120;8.764;2024-03-22T05:59:00;52.53;;;29.15;;
54919;SDS011;63804;53.120;8.764;2024-03-22T06:01:26;52.92;;;29.90;;
54919;SDS011;63804;53.120;8.764;2024-03-22T06:03:52;51.58;;;30.70;;
54919;SDS011;63804;53.120;8.764;2024-03-22T06:06:19;55.97;;;30.33;;
54919;SDS011;63804;53.120;8.764;2024-03-22T06:08:48;52.03;;;30.45;;
54919;SDS011;63804;53.120;8.764;2024-03-22T06:11:18;54.03;;;29.67;;
54919;SDS011;63804;53.120;8.764;2024-03-22T06:47:40;49.05;;;28.40;;
54919;SDS011;63804;53.120;8.764;2024-03-22T06:50:06;45.17;;;27.65;;
54919;SDS011;63804;53.120;8.764;2024-03-22T06:52:32;48.72;;;28.88;;
54919;SDS011;63804;53.120;8.764;2024-03-22T06:54:58;54.70;;;28.65;;
54919;SDS011;63804;53.120;8.764;2024-03-22T06:57:24;49.58;;;29.52;;
54919;SDS011;63804;53.120;8.764;2024-03-22T06:59:50;49.72;;;30.33;;
54919;SDS011;63804;53.120;8.764;2024-03-22T07:02:16;49.25;;;29.40;;
54919;SDS011;63804;53.120;8.764;2024-03-22T07:04:44;55.10;;;29.17;;
54919;SDS011;63804;53.120;8.764;2024-03-22T07:07:10;54.28;;;30.45;;
54919;SDS011;63804;53.120;8.764;2024-03-22T07:09:36;50.72;;;29.70;;
54919;SDS011;63804;53.120;8.764;2024-03-22T07:12:02;53.17;;;30.50;;
54919;SDS011;63804;53.120;8.764;2024-03-22T07:14:28;57.33;;;32.60;;
54919;SDS011;63804;53.120;8.764;2024-03-22T07:16:54;50.63;;;30.00;;
54919;SDS011;63804;53.120;8.764;2024-03-22T07:19:20;63.10;;;32.10;;
54919;SDS011;63804;53.120;8.764;2024-03-22T07:21:47;57.33;;;31.42;;
54919;SDS011;63804;53.120;8.764;2024-03-22T07:24:13;54.53;;;31.00;;
54919;SDS011;63804;53.120;8.764;2024-03-22T07:26:39;56.58;;;31.27;;
54919;SDS011;63804;53.120;8.764;2024-03-22T07:29:06;55.92;;;31.50;;
54919;SDS011;63804;53.120;8.764;2024-03-22T07:31:32;54.03;;;29.73;;
54919;SDS011;63804;53.120;8.764;2024-03-22T07:33:58;60.55;;;31.38;;
54919;SDS011;63804;53.120;8.764;2024-03-22T07:36:24;58.08;;;31.92;;
54919;SDS011;63804;53.120;8.764;2024-03-22T07:38:52;54.63;;;30.75;;
54919;SDS011;63804;53.120;8.764;2024-03-22T07:41:18;61.35;;;30.90;;
54919;SDS011;63804;53.120;8.764;2024-03-22T07:43:44;60.00;;;32.97;;
54919;SDS011;63804;53.120;8.764;2024-03-22T07:46:10;56.22;;;32.13;;
54919;SDS011;63804;53.120;8.764;2024-03-22T07:48:37;55.78;;;30.58;;
54919;SDS011;63804;53.120;8.764;2024-03-22T07:51:03;60.17;;;32.25;;
54919;SDS011;63804;53.120;8.764;2024-03-22T07:53:29;58.60;;;32.08;;
54919;SDS011;63804;53.120;8.764;2024-03-22T07:55:55;58.63;;;30.92;;
54919;SDS011;63804;53.120;8.764;2024-03-22T07:58:21;57.72;;;30.95;;
54919;SDS011;63804;53.120;8.764;2024-03-22T08:00:47;61.10;;;32.53;;
54919;SDS011;63804;53.120;8.764;2024-03-22T08:03:16;56.28;;;30.67;;
54919;SDS011;63804;53.120;8.764;2024-03-22T08:05:42;60.85;;;32.88;;
54919;SDS011;63804;53.120;8.764;2024-03-22T08:08:08;59.30;;;32.35;;
54919;SDS011;63804;53.120;8.764;2024-03-22T08:10:34;60.97;;;33.17;;
54919;SDS011;63804;53.120;8.764;2024-03-22T08:13:00;58.42;;;30.92;;
54919;SDS011;63804;53.120;8.764;2024-03-22T08:15:26;60.00;;;31.83;;
54919;SDS011;63804;53.120;8.764;2024-03-22T08:17:53;62.28;;;34.00;;
54919;SDS011;63804;53.120;8.764;2024-03-22T08:20:19;59.88;;;32.85;;
54919;SDS011;63804;53.120;8.764;2024-03-22T08:22:45;59.17;;;32.05;;
54919;SDS011;63804;53.120;8.764;2024-03-22T08:25:11;61.47;;;31.75;;
54919;SDS011;63804;53.120;8.764;2024-03-22T08:27:38;57.10;;;32.08;;
54919;SDS011;63804;53.120;8.764;2024-03-22T08:30:04;57.95;;;31.52;;
54919;SDS011;63804;53.120;8.764;2024-03-22T08:32:30;53.85;;;29.70;;
54919;SDS011;63804;53.120;8.764;2024-03-22T08:34:56;53.60;;;29.38;;
54919;SDS011;63804;53.120;8.764;2024-03-22T08:37:22;56.97;;;30.25;;
54919;SDS011;63804;53.120;8.764;2024-03-22T08:39:48;57.35;;;30.60;;
54919;SDS011;63804;53.120;8.764;2024-03-22T08:42:14;52.92;;;29.00;;
54919;SDS011;63804;53.120;8.764;2024-03-22T08:44:40;50.47;;;28.40;;
54919;SDS011;63804;53.120;8.764;2024-03-22T08:47:06;53.45;;;30.20;;
54919;SDS011;63804;53.120;8.764;2024-03-22T08:49:32;48.33;;;27.83;;
54919;SDS011;63804;53.120;8.764;2024-03-22T08:51:58;49.45;;;27.77;;
54919;SDS011;63804;53.120;8.764;2024-03-22T08:54:24;51.17;;;29.65;;
54919;SDS011;63804;53.120;8.764;2024-03-22T08:56:50;49.60;;;29.05;;
54919;SDS011;63804;53.120;8.764;2024-03-22T08:59:16;49.53;;;28.45;;
54919;SDS011;63804;53.120;8.764;2024-03-22T09:01:42;50.05;;;27.70;;
54919;SDS011;63804;53.120;8.764;2024-03-22T09:04:08;48.90;;;27.27;;
54919;SDS011;63804;53.120;8.764;2024-03-22T09:06:34;48.00;;;27.60;;
54919;SDS011;63804;53.120;8.764;2024-03-22T09:09:00;47.90;;;26.48;;
54919;SDS011;63804;53.120;8.764;2024-03-22T09:11:25;50.25;;;27.55;;
54919;SDS011;63804;53.120;8.764;2024-03-22T09:13:52;47.65;;;26.45;;
54919;SDS011;63804;53.120;8.764;2024-03-22T09:16:19;47.17;;;26.02;;
54919;SDS011;63804;53.120;8.764;2024-03-22T09:18:46;42.58;;;24.70;;
54919;SDS011;63804;53.120;8.764;2024-03-22T09:21:12;42.35;;;24.27;;
54919;SDS011;63804;53.120;8.764;2024-03-22T09:23:38;46.13;;;25.35;;
54919;SDS011;63804;53.120;8.764;2024-03-22T09:26:04;45.28;;;24.77;;
54919;SDS011;63804;53.120;8.764;2024-03-22T09:28:31;42.65;;;24.45;;
54919;SDS011;63804;53.120;8.764;2024-03-22T09:30:57;40.53;;;23.83;;
54919;SDS011;63804;53.120;8.764;2024-03-22T09:33:23;49.58;;;24.15;;
54919;SDS011;63804;53.120;8.764;2024-03-22T09:35:49;45.78;;;24.55;;
54919;SDS011;63804;53.120;8.764;2024-03-22T09:38:15;43.80;;;24.63;;
54919;SDS011;63804;53.120;8.764;2024-03-22T09:40:41;48.05;;;25.98;;
54919;SDS011;63804;53.120;8.764;2024-03-22T09:43:07;43.90;;;24.30;;
54919;SDS011;63804;53.120;8.764;2024-03-22T09:45:35;45.08;;;25.55;;
54919;SDS011;63804;53.120;8.764;2024-03-22T09:48:01;45.50;;;25.48;;
54919;SDS011;63804;53.120;8.764;2024-03-22T09:50:28;43.20;;;23.83;;
54919;SDS011;63804;53.120;8.764;2024-03-22T09:52:56;42.80;;;23.38;;
54919;SDS011;63804;53.120;8.764;2024-03-22T09:55:44;42.85;;;22.73;;
54919;SDS011;63804;53.120;8.764;2024-03-22T09:58:10;39.92;;;23.38;;
54919;SDS011;63804;53.120;8.764;2024-03-22T10:00:36;41.10;;;22.92;;
54919;SDS011;63804;53.120;8.764;2024-03-22T10:03:02;39.67;;;23.35;;
54919;SDS011;63804;53.120;8.764;2024-03-22T10:05:30;38.80;;;22.52;;
54919;SDS011;63804;53.120;8.764;2024-03-22T10:07:57;37.90;;;21.20;;
54919;SDS011;63804;53.120;8.764;2024-03-22T10:10:23;35.97;;;20.25;;
54919;SDS011;63804;53.120;8.764;2024-03-22T10:12:49;36.05;;;20.30;;
54919;SDS011;63804;53.120;8.764;2024-03-22T10:15:18;33.72;;;19.90;;
54919;SDS011;63804;53.120;8.764;2024-03-22T10:17:50;36.40;;;19.75;;
54919;SDS011;63804;53.120;8.764;2024-03-22T10:20:16;33.17;;;18.20;;
54919;SDS011;63804;53.120;8.764;2024-03-22T10:22:43;28.27;;;16.80;;
54919;SDS011;63804;53.120;8.764;2024-03-22T10:25:14;28.63;;;17.05;;
54919;SDS011;63804;53.120;8.764;2024-03-22T10:27:39;29.50;;;16.52;;
54919;SDS011;63804;53.120;8.764;2024-03-22T10:30:09;27.30;;;16.00;;
54919;SDS011;63804;53.120;8.764;2024-03-22T10:32:36;31.85;;;17.85;;
54919;SDS011;63804;53.120;8.764;2024-03-22T10:35:03;31.83;;;17.17;;
54919;SDS011;63804;53.120;8.764;2024-03-22T10:37:35;32.67;;;17.92;;
54919;SDS011;63804;53.120;8.764;2024-03-22T10:40:01;33.42;;;18.98;;
54919;SDS011;63804;53.120;8.764;2024-03-22T10:42:34;30.08;;;17.08;;
54919;SDS011;63804;53.120;8.764;2024-03-22T10:45:01;33.03;;;16.20;;
54919;SDS011;63804;53.120;8.764;2024-03-22T10:47:32;29.02;;;15.57;;
54919;SDS011;63804;53.120;8.764;2024-03-22T10:50:09;26.55;;;14.90;;
54919;SDS011;63804;53.120;8.764;2024-03-22T10:52:37;27.15;;;15.23;;
54919;SDS011;63804;53.120;8.764;2024-03-22T10:55:06;24.90;;;14.02;;
54919;SDS011;63804;53.120;8.764;2024-03-22T10:57:37;24.95;;;14.75;;
54919;SDS011;63804;53.120;8.764;2024-03-22T11:00:08;24.63;;;14.57;;
54919;SDS011;63804;53.120;8.764;2024-03-22T11:02:39;25.52;;;14.82;;
54919;SDS011;63804;53.120;8.764;2024-03-22T11:05:18;23.10;;;14.15;;
54919;SDS011;63804;53.120;8.764;2024-03-22T11:07:44;24.67;;;13.80;;
54919;SDS011;63804;53.120;8.764;2024-03-22T11:10:14;24.77;;;14.25;;
54919;SDS011;63804;53.120;8.764;2024-03-22T11:12:42;20.73;;;12.38;;
54919;SDS011;63804;53.120;8.764;2024-03-22T11:15:11;18.88;;;10.93;;
54919;SDS011;63804;53.120;8.764;2024-03-22T11:17:38;21.13;;;12.43;;
54919;SDS011;63804;53.120;8.764;2024-03-22T11:20:04;20.42;;;11.55;;
54919;SDS011;63804;53.120;8.764;2024-03-22T11:22:31;21.80;;;12.45;;
54919;SDS011;63804;53.120;8.764;2024-03-22T11:24:57;20.50;;;11.27;;
54919;SDS011;63804;53.120;8.764;2024-03-22T11:27:23;21.52;;;11.65;;
54919;SDS011;63804;53.120;8.764;2024-03-22T11:29:49;19.08;;;11.00;;
54919;SDS011;63804;53.120;8.764;2024-03-22T11:32:17;20.33;;;11.52;;
54919;SDS011;63804;53.120;8.764;2024-03-22T11:34:43;18.90;;;10.88;;
54919;SDS011;63804;53.120;8.764;2024-03-22T11:37:10;18.90;;;11.02;;
54919;SDS011;63804;53.120;8.764;2024-03-22T11:39:39;16.67;;;10.73;;
54919;SDS011;63804;53.120;8.764;2024-03-22T11:42:05;18.60;;;10.27;;
54919;SDS011;63804;53.120;8.764;2024-03-22T11:44:34;17.17;;;9.90;;
54919;SDS011;63804;53.120;8.764;2024-03-22T11:47:02;19.35;;;10.80;;
54919;SDS011;63804;53.120;8.764;2024-03-22T11:49:29;17.73;;;10.40;;
54919;SDS011;63804;53.120;8.764;2024-03-22T11:51:58;18.95;;;10.38;;
54919;SDS011;63804;53.120;8.764;2024-03-22T11:54:24;16.75;;;9.63;;
54919;SDS011;63804;53.120;8.764;2024-03-22T11:56:50;19.20;;;9.80;;
54919;SDS011;63804;53.120;8.764;2024-03-22T11:59:19;16.17;;;9.55;;
54919;SDS011;63804;53.120;8.764;2024-03-22T12:01:46;16.73;;;8.68;;
54919;SDS011;63804;53.120;8.764;2024-03-22T12:04:15;16.08;;;8.70;;
54919;SDS011;63804;53.120;8.764;2024-03-22T12:06:44;18.27;;;9.32;;
54919;SDS011;63804;53.120;8.764;2024-03-22T12:09:13;15.68;;;8.43;;
54919;SDS011;63804;53.120;8.764;2024-03-22T12:11:40;17.35;;;8.18;;
54919;SDS011;63804;53.120;8.764;2024-03-22T12:14:06;19.08;;;9.18;;
54919;SDS011;63804;53.120;8.764;2024-03-22T12:16:32;15.63;;;8.77;;
54919;SDS011;63804;53.120;8.764;2024-03-22T12:18:58;15.35;;;8.13;;
54919;SDS011;63804;53.120;8.764;2024-03-22T12:21:24;13.15;;;7.82;;
54919;SDS011;63804;53.120;8.764;2024-03-22T12:23:50;12.95;;;7.20;;
54919;SDS011;63804;53.120;8.764;2024-03-22T12:26:16;15.73;;;7.75;;
54919;SDS011;63804;53.120;8.764;2024-03-22T12:28:42;13.85;;;7.72;;
54919;SDS011;63804;53.120;8.764;2024-03-22T12:31:08;15.18;;;7.10;;
54919;SDS011;63804;53.120;8.764;2024-03-22T12:33:36;14.18;;;7.30;;
54919;SDS011;63804;53.120;8.764;2024-03-22T12:36:03;13.13;;;6.82;;
54919;SDS011;63804;53.120;8.764;2024-03-22T12:38:29;13.10;;;7.32;;
54919;SDS011;63804;53.120;8.764;2024-03-22T12:40:56;13.27;;;7.20;;
54919;SDS011;63804;53.120;8.764;2024-03-22T12:43:22;11.40;;;6.28;;
54919;SDS011;63804;53.120;8.764;2024-03-22T12:45:48;13.75;;;7.07;;
54919;SDS011;63804;53.120;8.764;2024-03-22T12:48:14;12.23;;;6.47;;
54919;SDS011;63804;53.120;8.764;2024-03-22T12:50:40;11.65;;;5.90;;
54919;SDS011;63804;53.120;8.764;2024-03-22T12:53:06;12.20;;;6.43;;
54919;SDS011;63804;53.120;8.764;2024-03-22T12:55:32;11.65;;;5.43;;
54919;SDS011;63804;53.120;8.764;2024-03-22T12:57:58;11.55;;;5.80;;
54919;SDS011;63804;53.120;8.764;2024-03-22T13:00:24;13.32;;;5.90;;
54919;SDS011;63804;53.120;8.764;2024-03-22T13:02:50;10.02;;;5.35;;
54919;SDS011;63804;53.120;8.764;2024-03-22T13:05:16;11.05;;;5.35;;
54919;SDS011;63804;53.120;8.764;2024-03-22T13:07:42;10.25;;;5.50;;
54919;SDS011;63804;53.120;8.764;2024-03-22T13:10:08;11.18;;;5.60;;
54919;SDS011;63804;53.120;8.764;2024-03-22T13:12:35;9.05;;;4.68;;
54919;SDS011;63804;53.120;8.764;2024-03-22T13:15:01;10.15;;;5.32;;
54919;SDS011;63804;53.120;8.764;2024-03-22T13:17:27;8.18;;;4.53;;
54919;SDS011;63804;53.120;8.764;2024-03-22T13:19:53;9.30;;;4.65;;
54919;SDS011;63804;53.120;8.764;2024-03-22T13:22:19;9.73;;;4.95;;
54919;SDS011;63804;53.120;8.764;2024-03-22T13:24:53;8.27;;;3.97;;
54919;SDS011;63804;53.120;8.764;2024-03-22T13:27:39;9.87;;;4.40;;
54919;SDS011;63804;53.120;8.764;2024-03-22T13:30:06;9.05;;;4.47;;
54919;SDS011;63804;53.120;8.764;2024-03-22T13:32:36;8.32;;;4.63;;
54919;SDS011;63804;53.120;8.764;2024-03-22T13:35:06;7.50;;;4.18;;
54919;SDS011;63804;53.120;8.764;2024-03-22T13:37:32;9.25;;;4.85;;
54919;SDS011;63804;53.120;8.764;2024-03-22T13:39:59;8.38;;;4.30;;
54919;SDS011;63804;53.120;8.764;2024-03-22T13:42:25;8.73;;;4.38;;
54919;SDS011;63804;53.120;8.764;2024-03-22T13:44:58;9.30;;;3.85;;
54919;SDS011;63804;53.120;8.764;2024-03-22T13:47:24;8.98;;;4.55;;
54919;SDS011;63804;53.120;8.764;2024-03-22T13:49:52;9.13;;;3.63;;
54919;SDS011;63804;53.120;8.764;2024-03-22T13:52:18;6.53;;;3.55;;
54919;SDS011;63804;53.120;8.764;2024-03-22T13:54:44;8.30;;;3.70;;
54919;SDS011;63804;53.120;8.764;2024-03-22T13:57:09;6.50;;;3.17;;
54919;SDS011;63804;53.120;8.764;2024-03-22T13:59:36;6.10;;;3.30;;
54919;SDS011;63804;53.120;8.764;2024-03-22T14:02:02;5.10;;;2.80;;
54919;SDS011;63804;53.120;8.764;2024-03-22T14:04:29;8.18;;;3.88;;
54919;SDS011;63804;53.120;8.764;2024-03-22T14:06:55;6.63;;;3.53;;
54919;SDS011;63804;53.120;8.764;2024-03-22T14:09:20;5.32;;;2.97;;
54919;SDS011;63804;53.120;8.764;2024-03-22T14:11:46;6.82;;;3.20;;
54919;SDS011;63804;53.120;8.764;2024-03-22T14:14:14;5.45;;;2.60;;
54919;SDS011;63804;53.120;8.764;2024-03-22T14:16:40;4.47;;;2.30;;
54919;SDS011;63804;53.120;8.764;2024-03-22T14:19:07;4.47;;;2.25;;
54919;SDS011;63804;53.120;8.764;2024-03-22T14:24:07;3.45;;;1.70;;
54919;SDS011;63804;53.120;8.764;2024-03-22T14:26:33;4.32;;;1.83;;
54919;SDS011;63804;53.120;8.764;2024-03-22T14:28:59;2.63;;;1.58;;
54919;SDS011;63804;53.120;8.764;2024-03-22T14:31:25;3.70;;;1.80;;
54919;SDS011;63804;53.120;8.764;2024-03-22T14:33:51;4.50;;;1.83;;
54919;SDS011;63804;53.120;8.764;2024-03-22T14:36:17;3.70;;;1.88;;
54919;SDS011;63804;53.120;8.764;2024-03-22T14:38:43;8.52;;;3.03;;
54919;SDS011;63804;53.120;8.764;2024-03-22T14:41:09;8.82;;;4.28;;
54919;SDS011;63804;53.120;8.764;2024-03-22T14:43:35;7.88;;;4.22;;
54919;SDS011;63804;53.120;8.764;2024-03-22T14:46:01;6.45;;;3.22;;
54919;SDS011;63804;53.120;8.764;2024-03-22T14:48:30;8.02;;;3.10;;
54919;SDS011;63804;53.120;8.764;2024-03-22T14:50:56;4.47;;;2.45;;
54919;SDS011;63804;53.120;8.764;2024-03-22T14:53:22;5.18;;;2.63;;
54919;SDS011;63804;53.120;8.764;2024-03-22T14:55:58;5.00;;;2.10;;
54919;SDS011;63804;53.120;8.764;2024-03-22T14:58:31;5.65;;;1.98;;
54919;SDS011;63804;53.120;8.764;2024-03-22T15:00:59;1.88;;;1.05;;